sensor_id;sensor_type;location;lat;lon;timestamp;P1;durP1;ratioP1;P2;durP2;ratioP2
20734;SDS011;10528;52.124;5.196;2023-10-08T00:01:16;15.27;;;4.53;;
20734;SDS011;10528;52.124;5.196;2023-10-08T00:03:44;11.80;;;4.40;;
20734;SDS011;10528;52.124;5.196;2023-10-08T00:06:16;11.80;;;4.40;;
20734;SDS011;10528;52.124;5.196;2023-10-08T00:08:47;16.40;;;4.93;;
20734;SDS011;10528;52.124;5.196;2023-10-08T00:11:15;16.40;;;4.57;;
20734;SDS011;10528;52.124;5.196;2023-10-08T00:13:43;17.02;;;4.97;;
20734;SDS011;10528;52.124;5.196;2023-10-08T00:16:12;14.98;;;4.22;;
20734;SDS011;10528;52.124;5.196;2023-10-08T00:18:44;14.18;;;4.45;;
20734;SDS011;10528;52.124;5.196;2023-10-08T00:21:19;18.42;;;6.28;;
20734;SDS011;10528;52.124;5.196;2023-10-08T00:23:55;15.75;;;5.10;;
20734;SDS011;10528;52.124;5.196;2023-10-08T00:26:26;15.95;;;5.35;;
20734;SDS011;10528;52.124;5.196;2023-10-08T00:28:57;17.52;;;5.32;;
20734;SDS011;10528;52.124;5.196;2023-10-08T00:31:48;18.48;;;4.88;;
20734;SDS011;10528;52.124;5.196;2023-10-08T00:34:16;18.50;;;5.63;;
20734;SDS011;10528;52.124;5.196;2023-10-08T00:36:46;15.43;;;4.80;;
20734;SDS011;10528;52.124;5.196;2023-10-08T00:39:14;14.45;;;4.63;;
20734;SDS011;10528;52.124;5.196;2023-10-08T00:41:49;12.93;;;4.65;;
20734;SDS011;10528;52.124;5.196;2023-10-08T00:44:31;15.27;;;4.65;;
20734;SDS011;10528;52.124;5.196;2023-10-08T00:47:02;18.27;;;5.05;;
20734;SDS011;10528;52.124;5.196;2023-10-08T00:49:32;11.95;;;4.55;;
20734;SDS011;10528;52.124;5.196;2023-10-08T00:52:10;16.02;;;4.57;;
20734;SDS011;10528;52.124;5.196;2023-10-08T00:54:39;19.35;;;4.55;;
20734;SDS011;10528;52.124;5.196;2023-10-08T00:57:19;18.45;;;5.45;;
20734;SDS011;10528;52.124;5.196;2023-10-08T00:59:50;17.52;;;5.32;;
20734;SDS011;10528;52.124;5.196;2023-10-08T01:02:20;16.13;;;4.68;;
20734;SDS011;10528;52.124;5.196;2023-10-08T01:04:55;14.93;;;4.38;;
20734;SDS011;10528;52.124;5.196;2023-10-08T01:07:23;12.98;;;5.10;;
20734;SDS011;10528;52.124;5.196;2023-10-08T01:09:51;16.35;;;5.03;;
20734;SDS011;10528;52.124;5.196;2023-10-08T01:12:23;14.73;;;4.50;;
20734;SDS011;10528;52.124;5.196;2023-10-08T01:14:59;17.10;;;5.15;;
20734;SDS011;10528;52.124;5.196;2023-10-08T01:17:45;14.38;;;4.68;;
20734;SDS011;10528;52.124;5.196;2023-10-08T01:20:38;18.58;;;5.68;;
20734;SDS011;10528;52.124;5.196;2023-10-08T01:23:25;15.40;;;5.40;;
20734;SDS011;10528;52.124;5.196;2023-10-08T01:25:55;17.58;;;5.40;;
20734;SDS011;10528;52.124;5.196;2023-10-08T01:28:37;16.42;;;5.07;;
20734;SDS011;10528;52.124;5.196;2023-10-08T01:31:04;19.83;;;5.18;;
20734;SDS011;10528;52.124;5.196;2023-10-08T01:33:33;14.55;;;4.93;;
20734;SDS011;10528;52.124;5.196;2023-10-08T01:36:13;18.45;;;4.45;;
20734;SDS011;10528;52.124;5.196;2023-10-08T01:38:40;17.45;;;5.97;;
20734;SDS011;10528;52.124;5.196;2023-10-08T01:41:15;17.52;;;5.28;;
20734;SDS011;10528;52.124;5.196;2023-10-08T01:43:46;16.52;;;5.97;;
20734;SDS011;10528;52.124;5.196;2023-10-08T01:46:13;15.48;;;4.72;;
20734;SDS011;10528;52.124;5.196;2023-10-08T01:48:42;13.90;;;4.70;;
20734;SDS011;10528;52.124;5.196;2023-10-08T01:51:11;13.15;;;4.82;;
20734;SDS011;10528;52.124;5.196;2023-10-08T01:53:45;17.13;;;5.40;;
20734;SDS011;10528;52.124;5.196;2023-10-08T01:56:14;19.10;;;5.15;;
20734;SDS011;10528;52.124;5.196;2023-10-08T01:58:41;18.45;;;5.55;;
20734;SDS011;10528;52.124;5.196;2023-10-08T02:01:08;12.40;;;5.03;;
20734;SDS011;10528;52.124;5.196;2023-10-08T02:03:38;15.63;;;4.95;;
20734;SDS011;10528;52.124;5.196;2023-10-08T02:06:08;14.30;;;5.22;;
20734;SDS011;10528;52.124;5.196;2023-10-08T02:08:35;21.42;;;5.30;;
20734;SDS011;10528;52.124;5.196;2023-10-08T02:11:03;15.55;;;4.85;;
20734;SDS011;10528;52.124;5.196;2023-10-08T02:13:30;15.13;;;5.20;;
20734;SDS011;10528;52.124;5.196;2023-10-08T02:15:57;17.20;;;5.43;;
20734;SDS011;10528;52.124;5.196;2023-10-08T02:18:24;18.15;;;5.68;;
20734;SDS011;10528;52.124;5.196;2023-10-08T02:20:52;20.25;;;5.85;;
20734;SDS011;10528;52.124;5.196;2023-10-08T02:23:19;13.18;;;4.72;;
20734;SDS011;10528;52.124;5.196;2023-10-08T02:25:46;14.52;;;5.18;;
20734;SDS011;10528;52.124;5.196;2023-10-08T02:28:14;12.25;;;5.25;;
20734;SDS011;10528;52.124;5.196;2023-10-08T02:30:42;18.13;;;5.32;;
20734;SDS011;10528;52.124;5.196;2023-10-08T02:33:10;19.98;;;6.00;;
20734;SDS011;10528;52.124;5.196;2023-10-08T02:35:44;16.85;;;5.00;;
20734;SDS011;10528;52.124;5.196;2023-10-08T02:38:13;18.50;;;5.10;;
20734;SDS011;10528;52.124;5.196;2023-10-08T02:40:43;16.70;;;5.55;;
20734;SDS011;10528;52.124;5.196;2023-10-08T02:43:13;15.10;;;5.20;;
20734;SDS011;10528;52.124;5.196;2023-10-08T02:45:42;18.02;;;5.25;;
20734;SDS011;10528;52.124;5.196;2023-10-08T02:48:14;20.33;;;5.78;;
20734;SDS011;10528;52.124;5.196;2023-10-08T02:50:43;15.80;;;5.10;;
20734;SDS011;10528;52.124;5.196;2023-10-08T02:53:13;16.92;;;4.55;;
20734;SDS011;10528;52.124;5.196;2023-10-08T02:55:52;16.38;;;5.88;;
20734;SDS011;10528;52.124;5.196;2023-10-08T02:58:20;16.00;;;5.40;;
20734;SDS011;10528;52.124;5.196;2023-10-08T03:00:47;14.57;;;5.20;;
20734;SDS011;10528;52.124;5.196;2023-10-08T03:03:15;14.82;;;5.43;;
20734;SDS011;10528;52.124;5.196;2023-10-08T03:05:46;17.08;;;5.68;;
20734;SDS011;10528;52.124;5.196;2023-10-08T03:08:23;17.95;;;5.45;;
20734;SDS011;10528;52.124;5.196;2023-10-08T03:10:50;18.67;;;6.22;;
20734;SDS011;10528;52.124;5.196;2023-10-08T03:13:23;18.50;;;5.30;;
20734;SDS011;10528;52.124;5.196;2023-10-08T03:15:52;15.93;;;5.03;;
20734;SDS011;10528;52.124;5.196;2023-10-08T03:18:26;14.05;;;5.50;;
20734;SDS011;10528;52.124;5.196;2023-10-08T03:21:16;16.75;;;5.32;;
20734;SDS011;10528;52.124;5.196;2023-10-08T03:23:50;12.63;;;5.32;;
20734;SDS011;10528;52.124;5.196;2023-10-08T03:26:18;15.50;;;5.38;;
20734;SDS011;10528;52.124;5.196;2023-10-08T03:29:01;13.13;;;5.05;;
20734;SDS011;10528;52.124;5.196;2023-10-08T03:31:34;14.18;;;5.00;;
20734;SDS011;10528;52.124;5.196;2023-10-08T03:34:17;14.45;;;5.55;;
20734;SDS011;10528;52.124;5.196;2023-10-08T03:36:46;16.92;;;5.75;;
20734;SDS011;10528;52.124;5.196;2023-10-08T03:39:16;14.90;;;5.40;;
20734;SDS011;10528;52.124;5.196;2023-10-08T03:41:45;11.38;;;4.85;;
20734;SDS011;10528;52.124;5.196;2023-10-08T03:44:32;19.52;;;6.25;;
20734;SDS011;10528;52.124;5.196;2023-10-08T03:47:03;14.32;;;4.88;;
20734;SDS011;10528;52.124;5.196;2023-10-08T03:49:37;13.63;;;5.40;;
20734;SDS011;10528;52.124;5.196;2023-10-08T03:52:11;13.93;;;5.30;;
20734;SDS011;10528;52.124;5.196;2023-10-08T03:54:41;15.43;;;5.85;;
20734;SDS011;10528;52.124;5.196;2023-10-08T03:57:15;14.98;;;5.93;;
20734;SDS011;10528;52.124;5.196;2023-10-08T03:59:51;14.15;;;5.22;;
20734;SDS011;10528;52.124;5.196;2023-10-08T04:02:25;20.27;;;6.32;;
20734;SDS011;10528;52.124;5.196;2023-10-08T04:05:08;15.40;;;5.60;;
20734;SDS011;10528;52.124;5.196;2023-10-08T04:07:45;14.82;;;6.22;;
20734;SDS011;10528;52.124;5.196;2023-10-08T04:10:25;15.80;;;6.53;;
20734;SDS011;10528;52.124;5.196;2023-10-08T04:13:09;19.63;;;6.55;;
20734;SDS011;10528;52.124;5.196;2023-10-08T04:15:36;15.52;;;5.82;;
20734;SDS011;10528;52.124;5.196;2023-10-08T04:18:08;13.30;;;5.82;;
20734;SDS011;10528;52.124;5.196;2023-10-08T04:20:36;16.73;;;6.40;;
20734;SDS011;10528;52.124;5.196;2023-10-08T04:23:08;17.33;;;6.60;;
20734;SDS011;10528;52.124;5.196;2023-10-08T04:25:47;21.85;;;6.47;;
20734;SDS011;10528;52.124;5.196;2023-10-08T04:28:21;18.25;;;7.03;;
20734;SDS011;10528;52.124;5.196;2023-10-08T04:30:48;18.75;;;6.20;;
20734;SDS011;10528;52.124;5.196;2023-10-08T04:33:17;21.40;;;6.00;;
20734;SDS011;10528;52.124;5.196;2023-10-08T04:35:46;17.38;;;6.35;;
20734;SDS011;10528;52.124;5.196;2023-10-08T04:38:23;19.40;;;5.75;;
20734;SDS011;10528;52.124;5.196;2023-10-08T04:40:52;13.98;;;4.97;;
20734;SDS011;10528;52.124;5.196;2023-10-08T04:43:20;16.92;;;4.97;;
20734;SDS011;10528;52.124;5.196;2023-10-08T04:45:57;14.50;;;6.03;;
20734;SDS011;10528;52.124;5.196;2023-10-08T04:48:26;14.25;;;5.75;;
20734;SDS011;10528;52.124;5.196;2023-10-08T04:50:59;16.98;;;5.28;;
20734;SDS011;10528;52.124;5.196;2023-10-08T04:53:28;17.50;;;5.28;;
20734;SDS011;10528;52.124;5.196;2023-10-08T04:55:59;15.25;;;4.65;;
20734;SDS011;10528;52.124;5.196;2023-10-08T04:58:34;19.10;;;5.30;;
20734;SDS011;10528;52.124;5.196;2023-10-08T05:01:07;15.65;;;4.70;;
20734;SDS011;10528;52.124;5.196;2023-10-08T05:03:48;18.88;;;4.57;;
20734;SDS011;10528;52.124;5.196;2023-10-08T05:06:34;15.88;;;4.07;;
20734;SDS011;10528;52.124;5.196;2023-10-08T05:09:09;13.27;;;3.00;;
20734;SDS011;10528;52.124;5.196;2023-10-08T05:11:49;7.78;;;2.70;;
20734;SDS011;10528;52.124;5.196;2023-10-08T05:14:19;10.82;;;2.85;;
20734;SDS011;10528;52.124;5.196;2023-10-08T05:17:06;10.52;;;2.45;;
20734;SDS011;10528;52.124;5.196;2023-10-08T05:19:48;9.50;;;2.50;;
20734;SDS011;10528;52.124;5.196;2023-10-08T05:22:34;11.13;;;3.05;;
20734;SDS011;10528;52.124;5.196;2023-10-08T05:25:03;7.43;;;2.88;;
20734;SDS011;10528;52.124;5.196;2023-10-08T05:27:44;10.38;;;2.47;;
20734;SDS011;10528;52.124;5.196;2023-10-08T05:33:04;9.05;;;3.25;;
20734;SDS011;10528;52.124;5.196;2023-10-08T05:35:40;6.50;;;2.60;;
20734;SDS011;10528;52.124;5.196;2023-10-08T05:38:12;6.82;;;2.92;;
20734;SDS011;10528;52.124;5.196;2023-10-08T05:41:02;7.63;;;2.90;;
20734;SDS011;10528;52.124;5.196;2023-10-08T05:43:39;5.07;;;2.67;;
20734;SDS011;10528;52.124;5.196;2023-10-08T05:46:12;8.88;;;2.97;;
20734;SDS011;10528;52.124;5.196;2023-10-08T05:48:55;8.60;;;3.00;;
20734;SDS011;10528;52.124;5.196;2023-10-08T05:51:35;14.25;;;3.20;;
20734;SDS011;10528;52.124;5.196;2023-10-08T05:54:19;9.82;;;3.35;;
20734;SDS011;10528;52.124;5.196;2023-10-08T05:56:54;8.73;;;3.20;;
20734;SDS011;10528;52.124;5.196;2023-10-08T05:59:43;11.57;;;3.20;;
20734;SDS011;10528;52.124;5.196;2023-10-08T06:02:34;10.50;;;3.33;;
20734;SDS011;10528;52.124;5.196;2023-10-08T06:05:05;7.70;;;3.05;;
20734;SDS011;10528;52.124;5.196;2023-10-08T06:07:53;11.38;;;3.55;;
20734;SDS011;10528;52.124;5.196;2023-10-08T06:13:09;12.25;;;3.53;;
20734;SDS011;10528;52.124;5.196;2023-10-08T06:15:43;10.95;;;2.97;;
20734;SDS011;10528;52.124;5.196;2023-10-08T06:18:33;7.88;;;2.72;;
20734;SDS011;10528;52.124;5.196;2023-10-08T06:21:03;8.25;;;3.38;;
20734;SDS011;10528;52.124;5.196;2023-10-08T06:23:37;9.75;;;3.05;;
20734;SDS011;10528;52.124;5.196;2023-10-08T06:26:08;10.35;;;3.25;;
20734;SDS011;10528;52.124;5.196;2023-10-08T06:28:36;7.80;;;2.92;;
20734;SDS011;10528;52.124;5.196;2023-10-08T06:31:04;11.05;;;3.00;;
20734;SDS011;10528;52.124;5.196;2023-10-08T06:33:42;9.90;;;2.40;;
20734;SDS011;10528;52.124;5.196;2023-10-08T06:36:11;12.30;;;3.40;;
20734;SDS011;10528;52.124;5.196;2023-10-08T06:38:39;11.73;;;3.25;;
20734;SDS011;10528;52.124;5.196;2023-10-08T06:41:11;9.25;;;3.35;;
20734;SDS011;10528;52.124;5.196;2023-10-08T06:43:41;13.48;;;4.30;;
20734;SDS011;10528;52.124;5.196;2023-10-08T06:46:14;9.13;;;3.17;;
20734;SDS011;10528;52.124;5.196;2023-10-08T06:48:45;9.10;;;1.98;;
20734;SDS011;10528;52.124;5.196;2023-10-08T06:51:15;11.00;;;2.45;;
20734;SDS011;10528;52.124;5.196;2023-10-08T06:53:46;11.65;;;2.10;;
20734;SDS011;10528;52.124;5.196;2023-10-08T06:56:15;8.85;;;2.47;;
20734;SDS011;10528;52.124;5.196;2023-10-08T06:58:45;7.47;;;2.40;;
20734;SDS011;10528;52.124;5.196;2023-10-08T07:01:18;5.32;;;2.03;;
20734;SDS011;10528;52.124;5.196;2023-10-08T07:03:51;9.65;;;1.90;;
20734;SDS011;10528;52.124;5.196;2023-10-08T07:06:29;7.43;;;1.92;;
20734;SDS011;10528;52.124;5.196;2023-10-08T07:09:01;8.48;;;1.90;;
20734;SDS011;10528;52.124;5.196;2023-10-08T07:11:32;11.05;;;1.92;;
20734;SDS011;10528;52.124;5.196;2023-10-08T07:14:01;6.15;;;1.90;;
20734;SDS011;10528;52.124;5.196;2023-10-08T07:16:33;6.18;;;1.52;;
20734;SDS011;10528;52.124;5.196;2023-10-08T07:19:00;6.45;;;1.67;;
20734;SDS011;10528;52.124;5.196;2023-10-08T07:21:28;5.30;;;1.30;;
20734;SDS011;10528;52.124;5.196;2023-10-08T07:24:04;8.55;;;1.70;;
20734;SDS011;10528;52.124;5.196;2023-10-08T07:26:41;5.88;;;1.92;;
20734;SDS011;10528;52.124;5.196;2023-10-08T07:29:13;5.60;;;1.52;;
20734;SDS011;10528;52.124;5.196;2023-10-08T07:31:45;4.40;;;1.20;;
20734;SDS011;10528;52.124;5.196;2023-10-08T07:34:18;2.65;;;1.00;;
20734;SDS011;10528;52.124;5.196;2023-10-08T07:36:49;4.72;;;1.30;;
20734;SDS011;10528;52.124;5.196;2023-10-08T07:39:18;3.47;;;1.30;;
20734;SDS011;10528;52.124;5.196;2023-10-08T07:42:01;3.28;;;1.20;;
20734;SDS011;10528;52.124;5.196;2023-10-08T07:44:32;4.40;;;1.15;;
20734;SDS011;10528;52.124;5.196;2023-10-08T07:47:02;3.35;;;1.30;;
20734;SDS011;10528;52.124;5.196;2023-10-08T07:49:31;2.78;;;1.00;;
20734;SDS011;10528;52.124;5.196;2023-10-08T07:51:58;3.63;;;1.17;;
20734;SDS011;10528;52.124;5.196;2023-10-08T07:54:26;2.67;;;1.20;;
20734;SDS011;10528;52.124;5.196;2023-10-08T07:57:01;3.13;;;1.25;;
20734;SDS011;10528;52.124;5.196;2023-10-08T07:59:45;3.92;;;1.60;;
20734;SDS011;10528;52.124;5.196;2023-10-08T08:02:14;2.30;;;1.30;;
20734;SDS011;10528;52.124;5.196;2023-10-08T08:04:44;2.70;;;1.45;;
20734;SDS011;10528;52.124;5.196;2023-10-08T08:07:13;2.92;;;1.45;;
20734;SDS011;10528;52.124;5.196;2023-10-08T08:09:43;2.67;;;1.90;;
20734;SDS011;10528;52.124;5.196;2023-10-08T08:12:19;4.57;;;1.75;;
20734;SDS011;10528;52.124;5.196;2023-10-08T08:14:48;3.22;;;1.77;;
20734;SDS011;10528;52.124;5.196;2023-10-08T08:17:20;3.78;;;2.05;;
20734;SDS011;10528;52.124;5.196;2023-10-08T08:19:49;4.22;;;2.00;;
20734;SDS011;10528;52.124;5.196;2023-10-08T08:22:19;4.38;;;1.60;;
20734;SDS011;10528;52.124;5.196;2023-10-08T08:24:52;2.90;;;1.88;;
20734;SDS011;10528;52.124;5.196;2023-10-08T08:27:25;2.88;;;1.88;;
20734;SDS011;10528;52.124;5.196;2023-10-08T08:29:58;2.40;;;1.40;;
20734;SDS011;10528;52.124;5.196;2023-10-08T08:32:46;3.75;;;1.80;;
20734;SDS011;10528;52.124;5.196;2023-10-08T08:35:18;3.17;;;1.67;;
20734;SDS011;10528;52.124;5.196;2023-10-08T08:37:46;3.78;;;1.90;;
20734;SDS011;10528;52.124;5.196;2023-10-08T08:40:14;5.88;;;2.40;;
20734;SDS011;10528;52.124;5.196;2023-10-08T08:42:50;3.53;;;2.22;;
20734;SDS011;10528;52.124;5.196;2023-10-08T08:45:24;3.83;;;2.30;;
20734;SDS011;10528;52.124;5.196;2023-10-08T08:47:53;2.63;;;1.80;;
20734;SDS011;10528;52.124;5.196;2023-10-08T08:50:22;6.10;;;2.95;;
20734;SDS011;10528;52.124;5.196;2023-10-08T08:52:49;4.18;;;2.50;;
20734;SDS011;10528;52.124;5.196;2023-10-08T08:55:18;4.72;;;2.40;;
20734;SDS011;10528;52.124;5.196;2023-10-08T08:57:47;5.80;;;2.92;;
20734;SDS011;10528;52.124;5.196;2023-10-08T09:00:18;3.88;;;2.40;;
20734;SDS011;10528;52.124;5.196;2023-10-08T09:02:47;5.32;;;2.17;;
20734;SDS011;10528;52.124;5.196;2023-10-08T09:05:16;3.67;;;2.38;;
20734;SDS011;10528;52.124;5.196;2023-10-08T09:10:30;4.10;;;2.25;;
20734;SDS011;10528;52.124;5.196;2023-10-08T09:13:05;5.32;;;2.78;;
20734;SDS011;10528;52.124;5.196;2023-10-08T09:15:37;4.60;;;2.35;;
20734;SDS011;10528;52.124;5.196;2023-10-08T09:18:04;4.32;;;2.50;;
20734;SDS011;10528;52.124;5.196;2023-10-08T09:20:36;5.07;;;2.60;;
20734;SDS011;10528;52.124;5.196;2023-10-08T09:23:11;6.47;;;2.10;;
20734;SDS011;10528;52.124;5.196;2023-10-08T09:25:44;3.80;;;1.95;;
20734;SDS011;10528;52.124;5.196;2023-10-08T09:28:17;3.10;;;1.92;;
20734;SDS011;10528;52.124;5.196;2023-10-08T09:30:44;3.83;;;2.10;;
20734;SDS011;10528;52.124;5.196;2023-10-08T09:33:12;6.13;;;2.05;;
20734;SDS011;10528;52.124;5.196;2023-10-08T09:35:42;6.95;;;2.40;;
20734;SDS011;10528;52.124;5.196;2023-10-08T09:38:10;4.20;;;2.42;;
20734;SDS011;10528;52.124;5.196;2023-10-08T09:40:41;4.28;;;2.08;;
20734;SDS011;10528;52.124;5.196;2023-10-08T09:43:10;3.90;;;2.20;;
20734;SDS011;10528;52.124;5.196;2023-10-08T09:45:42;4.70;;;2.50;;
20734;SDS011;10528;52.124;5.196;2023-10-08T09:48:18;4.68;;;2.60;;
20734;SDS011;10528;52.124;5.196;2023-10-08T09:50:51;3.80;;;2.35;;
20734;SDS011;10528;52.124;5.196;2023-10-08T09:53:29;3.53;;;2.20;;
20734;SDS011;10528;52.124;5.196;2023-10-08T09:56:14;4.13;;;2.25;;
20734;SDS011;10528;52.124;5.196;2023-10-08T09:58:44;3.17;;;2.08;;
20734;SDS011;10528;52.124;5.196;2023-10-08T10:01:16;4.50;;;2.15;;
20734;SDS011;10528;52.124;5.196;2023-10-08T10:03:46;4.25;;;2.20;;
20734;SDS011;10528;52.124;5.196;2023-10-08T10:06:14;4.60;;;2.47;;
20734;SDS011;10528;52.124;5.196;2023-10-08T10:08:44;5.32;;;2.45;;
20734;SDS011;10528;52.124;5.196;2023-10-08T10:11:15;3.70;;;2.30;;
20734;SDS011;10528;52.124;5.196;2023-10-08T10:13:42;5.00;;;1.98;;
20734;SDS011;10528;52.124;5.196;2023-10-08T10:16:20;3.92;;;2.15;;
20734;SDS011;10528;52.124;5.196;2023-10-08T10:18:54;4.40;;;2.40;;
20734;SDS011;10528;52.124;5.196;2023-10-08T10:21:24;5.35;;;2.10;;
20734;SDS011;10528;52.124;5.196;2023-10-08T10:23:57;4.85;;;2.20;;
20734;SDS011;10528;52.124;5.196;2023-10-08T10:26:31;3.38;;;2.10;;
20734;SDS011;10528;52.124;5.196;2023-10-08T10:34:23;5.25;;;1.70;;
20734;SDS011;10528;52.124;5.196;2023-10-08T10:36:55;5.68;;;2.25;;
20734;SDS011;10528;52.124;5.196;2023-10-08T10:39:26;4.65;;;2.60;;
20734;SDS011;10528;52.124;5.196;2023-10-08T10:41:54;4.97;;;2.35;;
20734;SDS011;10528;52.124;5.196;2023-10-08T10:44:28;4.15;;;2.55;;
20734;SDS011;10528;52.124;5.196;2023-10-08T10:46:57;5.30;;;2.70;;
20734;SDS011;10528;52.124;5.196;2023-10-08T10:49:45;4.47;;;2.33;;
20734;SDS011;10528;52.124;5.196;2023-10-08T10:52:36;4.90;;;2.60;;
20734;SDS011;10528;52.124;5.196;2023-10-08T10:55:19;3.85;;;2.40;;
20734;SDS011;10528;52.124;5.196;2023-10-08T10:57:54;6.03;;;2.65;;
20734;SDS011;10528;52.124;5.196;2023-10-08T11:00:24;4.95;;;2.92;;
20734;SDS011;10528;52.124;5.196;2023-10-08T11:02:59;5.53;;;2.65;;
20734;SDS011;10528;52.124;5.196;2023-10-08T11:05:47;4.30;;;2.80;;
20734;SDS011;10528;52.124;5.196;2023-10-08T11:08:22;4.63;;;2.80;;
20734;SDS011;10528;52.124;5.196;2023-10-08T11:10:50;6.80;;;3.28;;
20734;SDS011;10528;52.124;5.196;2023-10-08T11:13:20;4.95;;;2.75;;
20734;SDS011;10528;52.124;5.196;2023-10-08T11:15:54;4.70;;;2.90;;
20734;SDS011;10528;52.124;5.196;2023-10-08T11:18:25;6.50;;;3.00;;
20734;SDS011;10528;52.124;5.196;2023-10-08T11:21:05;3.67;;;2.83;;
20734;SDS011;10528;52.124;5.196;2023-10-08T11:23:43;4.40;;;3.00;;
20734;SDS011;10528;52.124;5.196;2023-10-08T11:26:36;5.55;;;2.70;;
20734;SDS011;10528;52.124;5.196;2023-10-08T11:29:06;5.28;;;3.25;;
20734;SDS011;10528;52.124;5.196;2023-10-08T11:31:41;6.55;;;3.33;;
20734;SDS011;10528;52.124;5.196;2023-10-08T11:34:10;5.80;;;3.67;;
20734;SDS011;10528;52.124;5.196;2023-10-08T11:36:40;6.32;;;3.35;;
20734;SDS011;10528;52.124;5.196;2023-10-08T11:39:19;5.13;;;3.45;;
20734;SDS011;10528;52.124;5.196;2023-10-08T11:41:59;9.38;;;3.20;;
20734;SDS011;10528;52.124;5.196;2023-10-08T11:44:33;6.65;;;4.05;;
20734;SDS011;10528;52.124;5.196;2023-10-08T11:47:03;6.20;;;3.83;;
20734;SDS011;10528;52.124;5.196;2023-10-08T11:49:38;5.60;;;3.75;;
20734;SDS011;10528;52.124;5.196;2023-10-08T11:52:14;7.25;;;4.82;;
20734;SDS011;10528;52.124;5.196;2023-10-08T11:54:45;6.18;;;4.53;;
20734;SDS011;10528;52.124;5.196;2023-10-08T11:57:15;6.07;;;4.22;;
20734;SDS011;10528;52.124;5.196;2023-10-08T11:59:49;8.02;;;4.63;;
20734;SDS011;10528;52.124;5.196;2023-10-08T12:02:21;6.18;;;4.28;;
20734;SDS011;10528;52.124;5.196;2023-10-08T12:04:48;6.10;;;4.07;;
20734;SDS011;10528;52.124;5.196;2023-10-08T12:07:16;5.18;;;3.95;;
20734;SDS011;10528;52.124;5.196;2023-10-08T12:09:44;7.15;;;4.45;;
20734;SDS011;10528;52.124;5.196;2023-10-08T12:12:15;9.18;;;4.78;;
20734;SDS011;10528;52.124;5.196;2023-10-08T12:14:51;7.32;;;4.22;;
20734;SDS011;10528;52.124;5.196;2023-10-08T12:17:21;7.68;;;4.90;;
20734;SDS011;10528;52.124;5.196;2023-10-08T12:19:56;6.10;;;4.30;;
20734;SDS011;10528;52.124;5.196;2023-10-08T12:22:23;9.40;;;4.15;;
20734;SDS011;10528;52.124;5.196;2023-10-08T12:24:50;7.55;;;4.20;;
20734;SDS011;10528;52.124;5.196;2023-10-08T12:27:17;8.48;;;4.55;;
20734;SDS011;10528;52.124;5.196;2023-10-08T12:29:44;7.38;;;3.97;;
20734;SDS011;10528;52.124;5.196;2023-10-08T12:32:11;9.68;;;3.90;;
20734;SDS011;10528;52.124;5.196;2023-10-08T12:34:45;6.55;;;3.95;;
20734;SDS011;10528;52.124;5.196;2023-10-08T12:37:13;5.68;;;3.83;;
20734;SDS011;10528;52.124;5.196;2023-10-08T12:39:41;7.45;;;3.60;;
20734;SDS011;10528;52.124;5.196;2023-10-08T12:42:26;5.80;;;3.25;;
20734;SDS011;10528;52.124;5.196;2023-10-08T12:44:53;6.70;;;3.50;;
20734;SDS011;10528;52.124;5.196;2023-10-08T12:47:24;6.20;;;2.83;;
20734;SDS011;10528;52.124;5.196;2023-10-08T12:49:55;4.47;;;2.30;;
20734;SDS011;10528;52.124;5.196;2023-10-08T12:52:24;6.90;;;2.47;;
20734;SDS011;10528;52.124;5.196;2023-10-08T12:54:54;6.03;;;2.25;;
20734;SDS011;10528;52.124;5.196;2023-10-08T12:57:22;4.57;;;2.40;;
20734;SDS011;10528;52.124;5.196;2023-10-08T12:59:58;7.13;;;2.38;;
20734;SDS011;10528;52.124;5.196;2023-10-08T13:02:26;5.10;;;2.78;;
20734;SDS011;10528;52.124;5.196;2023-10-08T13:04:55;4.68;;;2.20;;
20734;SDS011;10528;52.124;5.196;2023-10-08T13:07:24;5.70;;;1.88;;
20734;SDS011;10528;52.124;5.196;2023-10-08T13:09:52;3.00;;;1.80;;
20734;SDS011;10528;52.124;5.196;2023-10-08T13:12:19;3.47;;;2.08;;
20734;SDS011;10528;52.124;5.196;2023-10-08T13:14:47;4.15;;;1.90;;
20734;SDS011;10528;52.124;5.196;2023-10-08T13:17:14;3.58;;;1.55;;
20734;SDS011;10528;52.124;5.196;2023-10-08T13:19:41;4.78;;;1.70;;
20734;SDS011;10528;52.124;5.196;2023-10-08T13:22:10;4.57;;;1.80;;
20734;SDS011;10528;52.124;5.196;2023-10-08T13:24:38;3.90;;;1.63;;
20734;SDS011;10528;52.124;5.196;2023-10-08T13:27:07;5.97;;;1.73;;
20734;SDS011;10528;52.124;5.196;2023-10-08T13:29:34;4.53;;;1.63;;
20734;SDS011;10528;52.124;5.196;2023-10-08T13:32:01;5.13;;;1.77;;
20734;SDS011;10528;52.124;5.196;2023-10-08T13:34:30;4.28;;;2.15;;
20734;SDS011;10528;52.124;5.196;2023-10-08T13:36:57;5.82;;;2.33;;
20734;SDS011;10528;52.124;5.196;2023-10-08T13:39:24;4.18;;;1.40;;
20734;SDS011;10528;52.124;5.196;2023-10-08T13:41:53;3.75;;;1.70;;
20734;SDS011;10528;52.124;5.196;2023-10-08T13:44:23;4.70;;;1.60;;
20734;SDS011;10528;52.124;5.196;2023-10-08T13:46:56;2.83;;;1.50;;
20734;SDS011;10528;52.124;5.196;2023-10-08T13:49:26;5.93;;;2.38;;
20734;SDS011;10528;52.124;5.196;2023-10-08T13:51:53;3.38;;;1.90;;
20734;SDS011;10528;52.124;5.196;2023-10-08T13:54:23;5.45;;;2.00;;
20734;SDS011;10528;52.124;5.196;2023-10-08T13:56:59;4.85;;;2.00;;
20734;SDS011;10528;52.124;5.196;2023-10-08T13:59:28;6.50;;;2.00;;
20734;SDS011;10528;52.124;5.196;2023-10-08T14:01:59;5.35;;;1.98;;
20734;SDS011;10528;52.124;5.196;2023-10-08T14:04:28;4.65;;;1.98;;
20734;SDS011;10528;52.124;5.196;2023-10-08T14:07:06;6.05;;;1.90;;
20734;SDS011;10528;52.124;5.196;2023-10-08T14:09:34;4.97;;;1.60;;
20734;SDS011;10528;52.124;5.196;2023-10-08T14:12:04;4.55;;;1.70;;
20734;SDS011;10528;52.124;5.196;2023-10-08T14:14:36;6.40;;;1.80;;
20734;SDS011;10528;52.124;5.196;2023-10-08T14:17:07;4.72;;;1.67;;
20734;SDS011;10528;52.124;5.196;2023-10-08T14:19:37;4.20;;;1.83;;
20734;SDS011;10528;52.124;5.196;2023-10-08T14:22:18;4.93;;;2.15;;
20734;SDS011;10528;52.124;5.196;2023-10-08T14:24:49;7.07;;;2.30;;
20734;SDS011;10528;52.124;5.196;2023-10-08T14:27:25;5.90;;;2.08;;
20734;SDS011;10528;52.124;5.196;2023-10-08T14:30:00;7.95;;;2.63;;
20734;SDS011;10528;52.124;5.196;2023-10-08T14:32:32;5.43;;;2.15;;
20734;SDS011;10528;52.124;5.196;2023-10-08T14:35:00;4.88;;;1.92;;
20734;SDS011;10528;52.124;5.196;2023-10-08T14:37:46;4.00;;;1.60;;
20734;SDS011;10528;52.124;5.196;2023-10-08T14:40:31;6.70;;;2.00;;
20734;SDS011;10528;52.124;5.196;2023-10-08T14:43:17;4.47;;;2.05;;
20734;SDS011;10528;52.124;5.196;2023-10-08T14:45:46;6.70;;;2.30;;
20734;SDS011;10528;52.124;5.196;2023-10-08T14:48:14;4.82;;;1.83;;
20734;SDS011;10528;52.124;5.196;2023-10-08T14:50:41;4.00;;;2.03;;
20734;SDS011;10528;52.124;5.196;2023-10-08T14:53:09;3.40;;;1.98;;
20734;SDS011;10528;52.124;5.196;2023-10-08T14:55:36;4.30;;;2.63;;
20734;SDS011;10528;52.124;5.196;2023-10-08T14:58:04;4.13;;;1.60;;
20734;SDS011;10528;52.124;5.196;2023-10-08T15:00:35;5.63;;;1.90;;
20734;SDS011;10528;52.124;5.196;2023-10-08T15:03:03;4.85;;;1.88;;
20734;SDS011;10528;52.124;5.196;2023-10-08T15:05:31;4.90;;;1.70;;
20734;SDS011;10528;52.124;5.196;2023-10-08T15:07:58;4.20;;;1.63;;
20734;SDS011;10528;52.124;5.196;2023-10-08T15:10:26;5.40;;;1.77;;
20734;SDS011;10528;52.124;5.196;2023-10-08T15:12:53;4.80;;;1.90;;
20734;SDS011;10528;52.124;5.196;2023-10-08T15:15:20;3.40;;;2.00;;
20734;SDS011;10528;52.124;5.196;2023-10-08T15:17:51;4.75;;;1.92;;
20734;SDS011;10528;52.124;5.196;2023-10-08T15:20:21;7.72;;;2.10;;
20734;SDS011;10528;52.124;5.196;2023-10-08T15:22:50;4.15;;;1.75;;
20734;SDS011;10528;52.124;5.196;2023-10-08T15:25:17;4.22;;;2.03;;
20734;SDS011;10528;52.124;5.196;2023-10-08T15:27:45;5.32;;;2.13;;